Punta Gorda, FL

2:21 AM EDT on August 25, 2016 (GMT -0400)
Charlotte County | | Change Station

Elev 26 ft 26.92 °N, 81.99 °W | Updated 28 minutes ago

Clear
Clear
78 °F
Feels Like 78 °F
N
7
Wind Variable Wind from NE

Today
High -- | Low -- °F
--% Chance of Precip.
Yesterday
High -- | Low -- °F
Precip. -- in
Pressure 30.04 in
Visibility 10.0 miles
Clouds Clear
Dew Point 76 °F
Humidity 93%
Rainfall 0.00 in
Snow Depth Not available.
7:04 AM 7:54 PM
Waning Gibbous, 49% visible
METAR KPGD 250553Z 05006KT 10SM CLR 26/24 A3004 RMK AO2 SLP172 60002 T02560244 10267 20250 58003
Pressure 30.04 in
Visibility 10.0 miles
Clouds Clear
Dew Point 76 °F
Humidity 93%
Rainfall 0.00 in
Snow Depth Not available.
7:04 AM 7:54 PM
Waning Gibbous, 49% visible
METAR KPGD 250553Z 05006KT 10SM CLR 26/24 A3004 RMK AO2 SLP172 60002 T02560244 10267 20250 58003

10-Day Weather Forecast

Almanac

Astronomy

Aug. 25, 2016 Rise Set
Actual Time
Civil Twilight
Nautical Twilight
Astronomical Twilight
Moon
Length of Visible Light
Length of Day
Tomorrow will be .
, % of the Moon is Illuminated

Today's Extremes

State Highs State Lows

Community

WunderPhotos

Upload Photos

1,934,803 photos uploaded!

WunderBlog® & News

Nearby

Air Quality

  Air Quality AQ Index Pollutant
Not available.

Snow Depth

Station Depth Elevation

Earthquake Activity

City Distance Mag. Time & Date
Minimum magnitude displayed is 2.5.

Coastal Water Temperatures

Place Temperature

Stations

Nearby Weather Stations

Station Location Temp. Windchill Dew Point Humidity Wind Precip. Elev Updated Type
                   

Watches & Warnings

There are currently no watches in effect.